sensor_id;sensor_type;location;lat;lon;timestamp;P1;durP1;ratioP1;P2;durP2;ratioP2
16957;SDS011;8595;52.542;11.974;2022-08-19T00:00:45;22.42;;;20.17;;
16957;SDS011;8595;52.542;11.974;2022-08-19T00:03:12;22.58;;;20.33;;
16957;SDS011;8595;52.542;11.974;2022-08-19T00:05:39;22.75;;;20.40;;
16957;SDS011;8595;52.542;11.974;2022-08-19T00:08:08;24.08;;;19.90;;
16957;SDS011;8595;52.542;11.974;2022-08-19T00:10:35;24.27;;;21.55;;
16957;SDS011;8595;52.542;11.974;2022-08-19T00:13:02;21.45;;;19.35;;
16957;SDS011;8595;52.542;11.974;2022-08-19T00:15:29;22.17;;;19.75;;
16957;SDS011;8595;52.542;11.974;2022-08-19T00:17:55;21.55;;;19.27;;
16957;SDS011;8595;52.542;11.974;2022-08-19T00:20:22;21.92;;;19.50;;
16957;SDS011;8595;52.542;11.974;2022-08-19T00:22:49;22.55;;;20.55;;
16957;SDS011;8595;52.542;11.974;2022-08-19T00:25:18;21.50;;;19.08;;
16957;SDS011;8595;52.542;11.974;2022-08-19T00:27:44;23.98;;;21.48;;
16957;SDS011;8595;52.542;11.974;2022-08-19T00:30:12;22.98;;;20.58;;
16957;SDS011;8595;52.542;11.974;2022-08-19T00:32:39;19.60;;;17.60;;
16957;SDS011;8595;52.542;11.974;2022-08-19T00:35:07;25.33;;;22.73;;
16957;SDS011;8595;52.542;11.974;2022-08-19T00:37:34;24.23;;;21.83;;
16957;SDS011;8595;52.542;11.974;2022-08-19T00:40:02;25.63;;;22.90;;
16957;SDS011;8595;52.542;11.974;2022-08-19T00:42:32;25.90;;;23.20;;
16957;SDS011;8595;52.542;11.974;2022-08-19T00:44:58;28.98;;;21.70;;
16957;SDS011;8595;52.542;11.974;2022-08-19T00:47:25;26.50;;;23.73;;
16957;SDS011;8595;52.542;11.974;2022-08-19T00:49:53;26.33;;;23.60;;
16957;SDS011;8595;52.542;11.974;2022-08-19T00:52:23;28.65;;;23.67;;
16957;SDS011;8595;52.542;11.974;2022-08-19T00:54:54;26.98;;;23.92;;
16957;SDS011;8595;52.542;11.974;2022-08-19T00:57:22;28.17;;;25.13;;
16957;SDS011;8595;52.542;11.974;2022-08-19T00:59:54;29.88;;;26.45;;
16957;SDS011;8595;52.542;11.974;2022-08-19T01:02:22;28.48;;;25.38;;
16957;SDS011;8595;52.542;11.974;2022-08-19T01:04:50;30.40;;;27.23;;
16957;SDS011;8595;52.542;11.974;2022-08-19T01:07:16;30.77;;;27.45;;
16957;SDS011;8595;52.542;11.974;2022-08-19T01:09:43;35.97;;;30.83;;
16957;SDS011;8595;52.542;11.974;2022-08-19T01:12:10;35.08;;;31.15;;
16957;SDS011;8595;52.542;11.974;2022-08-19T01:14:37;29.50;;;26.33;;
16957;SDS011;8595;52.542;11.974;2022-08-19T01:17:07;32.00;;;28.60;;
16957;SDS011;8595;52.542;11.974;2022-08-19T01:19:36;35.13;;;29.33;;
16957;SDS011;8595;52.542;11.974;2022-08-19T01:22:06;33.20;;;27.50;;
16957;SDS011;8595;52.542;11.974;2022-08-19T01:24:39;34.08;;;30.42;;
16957;SDS011;8595;52.542;11.974;2022-08-19T01:27:06;31.85;;;28.33;;
16957;SDS011;8595;52.542;11.974;2022-08-19T01:29:34;31.52;;;28.13;;
16957;SDS011;8595;52.542;11.974;2022-08-19T01:32:04;32.88;;;29.17;;
16957;SDS011;8595;52.542;11.974;2022-08-19T01:34:31;32.15;;;27.40;;
16957;SDS011;8595;52.542;11.974;2022-08-19T01:36:59;32.15;;;28.58;;
16957;SDS011;8595;52.542;11.974;2022-08-19T01:39:32;31.38;;;28.15;;
16957;SDS011;8595;52.542;11.974;2022-08-19T01:42:02;28.83;;;25.92;;
16957;SDS011;8595;52.542;11.974;2022-08-19T01:44:29;29.75;;;26.60;;
16957;SDS011;8595;52.542;11.974;2022-08-19T01:46:56;28.77;;;25.77;;
16957;SDS011;8595;52.542;11.974;2022-08-19T01:49:23;29.42;;;26.23;;
16957;SDS011;8595;52.542;11.974;2022-08-19T01:51:51;32.00;;;28.25;;
16957;SDS011;8595;52.542;11.974;2022-08-19T01:54:20;30.30;;;27.25;;
16957;SDS011;8595;52.542;11.974;2022-08-19T01:56:48;31.30;;;28.10;;
16957;SDS011;8595;52.542;11.974;2022-08-19T01:59:18;31.33;;;27.85;;
16957;SDS011;8595;52.542;11.974;2022-08-19T02:01:47;37.00;;;29.85;;
16957;SDS011;8595;52.542;11.974;2022-08-19T02:04:14;30.48;;;27.27;;
16957;SDS011;8595;52.542;11.974;2022-08-19T02:06:41;32.53;;;28.83;;
16957;SDS011;8595;52.542;11.974;2022-08-19T02:09:08;31.58;;;28.20;;
16957;SDS011;8595;52.542;11.974;2022-08-19T02:11:36;31.42;;;28.33;;
16957;SDS011;8595;52.542;11.974;2022-08-19T02:14:04;32.67;;;29.38;;
16957;SDS011;8595;52.542;11.974;2022-08-19T02:16:34;31.10;;;27.45;;
16957;SDS011;8595;52.542;11.974;2022-08-19T02:19:02;36.70;;;28.88;;
16957;SDS011;8595;52.542;11.974;2022-08-19T02:21:29;38.05;;;30.65;;
16957;SDS011;8595;52.542;11.974;2022-08-19T02:23:56;43.30;;;33.90;;
16957;SDS011;8595;52.542;11.974;2022-08-19T02:26:23;37.45;;;32.83;;
16957;SDS011;8595;52.542;11.974;2022-08-19T02:28:51;41.45;;;33.90;;
16957;SDS011;8595;52.542;11.974;2022-08-19T02:31:20;36.25;;;32.40;;
16957;SDS011;8595;52.542;11.974;2022-08-19T02:33:49;40.63;;;33.33;;
16957;SDS011;8595;52.542;11.974;2022-08-19T02:36:17;35.28;;;31.48;;
16957;SDS011;8595;52.542;11.974;2022-08-19T02:38:44;35.85;;;30.50;;
16957;SDS011;8595;52.542;11.974;2022-08-19T02:41:11;37.10;;;32.70;;
16957;SDS011;8595;52.542;11.974;2022-08-19T02:43:39;38.35;;;34.38;;
16957;SDS011;8595;52.542;11.974;2022-08-19T02:46:14;40.05;;;34.42;;
16957;SDS011;8595;52.542;11.974;2022-08-19T02:48:46;41.50;;;35.38;;
16957;SDS011;8595;52.542;11.974;2022-08-19T02:51:16;43.40;;;36.42;;
16957;SDS011;8595;52.542;11.974;2022-08-19T02:53:44;37.40;;;32.40;;
16957;SDS011;8595;52.542;11.974;2022-08-19T02:56:10;42.88;;;35.97;;
16957;SDS011;8595;52.542;11.974;2022-08-19T02:58:37;40.40;;;36.05;;
16957;SDS011;8595;52.542;11.974;2022-08-19T03:01:04;40.08;;;35.45;;
16957;SDS011;8595;52.542;11.974;2022-08-19T03:03:30;41.75;;;36.03;;
16957;SDS011;8595;52.542;11.974;2022-08-19T03:06:08;42.85;;;35.45;;
16957;SDS011;8595;52.542;11.974;2022-08-19T03:08:39;44.35;;;37.53;;
16957;SDS011;8595;52.542;11.974;2022-08-19T03:11:11;43.88;;;38.20;;
16957;SDS011;8595;52.542;11.974;2022-08-19T03:13:39;47.67;;;39.60;;
16957;SDS011;8595;52.542;11.974;2022-08-19T03:16:08;51.47;;;43.58;;
16957;SDS011;8595;52.542;11.974;2022-08-19T03:18:35;46.15;;;38.83;;
16957;SDS011;8595;52.542;11.974;2022-08-19T03:21:01;47.15;;;40.05;;
16957;SDS011;8595;52.542;11.974;2022-08-19T03:23:29;51.00;;;41.20;;
16957;SDS011;8595;52.542;11.974;2022-08-19T03:25:56;46.78;;;38.03;;
16957;SDS011;8595;52.542;11.974;2022-08-19T03:28:23;50.85;;;40.53;;
16957;SDS011;8595;52.542;11.974;2022-08-19T03:30:56;48.90;;;40.67;;
16957;SDS011;8595;52.542;11.974;2022-08-19T03:33:25;49.17;;;42.65;;
16957;SDS011;8595;52.542;11.974;2022-08-19T03:36:02;47.85;;;40.90;;
16957;SDS011;8595;52.542;11.974;2022-08-19T03:38:33;62.50;;;47.55;;
16957;SDS011;8595;52.542;11.974;2022-08-19T03:41:04;45.95;;;38.25;;
16957;SDS011;8595;52.542;11.974;2022-08-19T03:43:33;50.90;;;40.63;;
16957;SDS011;8595;52.542;11.974;2022-08-19T03:46:02;49.92;;;42.17;;
16957;SDS011;8595;52.542;11.974;2022-08-19T03:48:31;48.42;;;40.78;;
16957;SDS011;8595;52.542;11.974;2022-08-19T03:50:59;57.55;;;45.42;;
16957;SDS011;8595;52.542;11.974;2022-08-19T03:53:27;51.22;;;43.58;;
16957;SDS011;8595;52.542;11.974;2022-08-19T03:55:56;46.33;;;41.20;;
16957;SDS011;8595;52.542;11.974;2022-08-19T03:58:24;50.67;;;40.80;;
16957;SDS011;8595;52.542;11.974;2022-08-19T04:00:52;53.20;;;42.30;;
16957;SDS011;8595;52.542;11.974;2022-08-19T04:03:19;45.88;;;39.85;;
16957;SDS011;8595;52.542;11.974;2022-08-19T04:05:46;48.17;;;39.78;;
16957;SDS011;8595;52.542;11.974;2022-08-19T04:08:14;45.95;;;38.45;;
16957;SDS011;8595;52.542;11.974;2022-08-19T04:10:43;41.70;;;36.08;;
16957;SDS011;8595;52.542;11.974;2022-08-19T04:13:12;50.13;;;43.33;;
16957;SDS011;8595;52.542;11.974;2022-08-19T04:15:39;46.13;;;39.38;;
16957;SDS011;8595;52.542;11.974;2022-08-19T04:18:06;41.42;;;37.05;;
16957;SDS011;8595;52.542;11.974;2022-08-19T04:20:38;39.83;;;34.33;;
16957;SDS011;8595;52.542;11.974;2022-08-19T04:23:09;40.78;;;36.10;;
16957;SDS011;8595;52.542;11.974;2022-08-19T04:25:36;41.45;;;36.95;;
16957;SDS011;8595;52.542;11.974;2022-08-19T04:28:04;43.47;;;38.35;;
16957;SDS011;8595;52.542;11.974;2022-08-19T04:30:37;39.78;;;35.20;;
16957;SDS011;8595;52.542;11.974;2022-08-19T04:33:05;39.22;;;35.03;;
16957;SDS011;8595;52.542;11.974;2022-08-19T04:35:34;37.50;;;33.35;;
16957;SDS011;8595;52.542;11.974;2022-08-19T04:38:02;37.72;;;33.63;;
16957;SDS011;8595;52.542;11.974;2022-08-19T04:40:29;36.67;;;32.50;;
16957;SDS011;8595;52.542;11.974;2022-08-19T04:43:13;38.15;;;33.47;;
16957;SDS011;8595;52.542;11.974;2022-08-19T04:45:41;37.80;;;32.00;;
16957;SDS011;8595;52.542;11.974;2022-08-19T04:48:09;37.85;;;30.80;;
16957;SDS011;8595;52.542;11.974;2022-08-19T04:50:38;36.35;;;31.85;;
16957;SDS011;8595;52.542;11.974;2022-08-19T04:53:07;38.92;;;34.65;;
16957;SDS011;8595;52.542;11.974;2022-08-19T04:55:34;37.03;;;31.60;;
16957;SDS011;8595;52.542;11.974;2022-08-19T04:58:01;37.33;;;32.40;;
16957;SDS011;8595;52.542;11.974;2022-08-19T05:00:28;34.80;;;30.13;;
16957;SDS011;8595;52.542;11.974;2022-08-19T05:02:56;37.90;;;32.47;;
16957;SDS011;8595;52.542;11.974;2022-08-19T05:05:22;37.00;;;32.78;;
16957;SDS011;8595;52.542;11.974;2022-08-19T05:07:49;39.55;;;33.40;;
16957;SDS011;8595;52.542;11.974;2022-08-19T05:10:16;36.55;;;31.70;;
16957;SDS011;8595;52.542;11.974;2022-08-19T05:12:43;35.72;;;30.90;;
16957;SDS011;8595;52.542;11.974;2022-08-19T05:15:09;35.83;;;31.67;;
16957;SDS011;8595;52.542;11.974;2022-08-19T05:17:36;30.75;;;27.13;;
16957;SDS011;8595;52.542;11.974;2022-08-19T05:20:24;34.83;;;30.10;;
16957;SDS011;8595;52.542;11.974;2022-08-19T05:23:09;32.72;;;29.20;;
16957;SDS011;8595;52.542;11.974;2022-08-19T05:25:39;33.58;;;29.95;;
16957;SDS011;8595;52.542;11.974;2022-08-19T05:28:06;31.90;;;28.48;;
16957;SDS011;8595;52.542;11.974;2022-08-19T05:30:32;33.70;;;29.08;;
16957;SDS011;8595;52.542;11.974;2022-08-19T05:32:59;32.08;;;28.48;;
16957;SDS011;8595;52.542;11.974;2022-08-19T05:35:27;31.88;;;27.40;;
16957;SDS011;8595;52.542;11.974;2022-08-19T05:37:54;31.17;;;27.20;;
16957;SDS011;8595;52.542;11.974;2022-08-19T05:40:21;30.30;;;27.15;;
16957;SDS011;8595;52.542;11.974;2022-08-19T05:42:47;33.60;;;28.40;;
16957;SDS011;8595;52.542;11.974;2022-08-19T05:45:15;29.98;;;26.77;;
16957;SDS011;8595;52.542;11.974;2022-08-19T05:47:42;32.83;;;27.85;;
16957;SDS011;8595;52.542;11.974;2022-08-19T05:50:10;31.08;;;28.02;;
16957;SDS011;8595;52.542;11.974;2022-08-19T05:52:38;34.88;;;29.92;;
16957;SDS011;8595;52.542;11.974;2022-08-19T05:55:05;31.15;;;27.85;;
16957;SDS011;8595;52.542;11.974;2022-08-19T05:57:32;31.23;;;27.92;;
16957;SDS011;8595;52.542;11.974;2022-08-19T05:59:59;30.13;;;26.58;;
16957;SDS011;8595;52.542;11.974;2022-08-19T06:02:27;31.17;;;27.83;;
16957;SDS011;8595;52.542;11.974;2022-08-19T06:04:55;31.33;;;25.98;;
16957;SDS011;8595;52.542;11.974;2022-08-19T06:07:22;32.05;;;28.67;;
16957;SDS011;8595;52.542;11.974;2022-08-19T06:09:50;34.10;;;29.27;;
16957;SDS011;8595;52.542;11.974;2022-08-19T06:12:16;35.72;;;31.15;;
16957;SDS011;8595;52.542;11.974;2022-08-19T06:14:43;33.45;;;29.88;;
16957;SDS011;8595;52.542;11.974;2022-08-19T06:17:10;35.80;;;31.33;;
16957;SDS011;8595;52.542;11.974;2022-08-19T06:19:37;36.78;;;30.20;;
16957;SDS011;8595;52.542;11.974;2022-08-19T06:22:05;30.40;;;25.27;;
16957;SDS011;8595;52.542;11.974;2022-08-19T06:24:33;39.38;;;28.70;;
16957;SDS011;8595;52.542;11.974;2022-08-19T06:27:02;32.08;;;28.63;;
16957;SDS011;8595;52.542;11.974;2022-08-19T06:29:30;32.00;;;28.40;;
16957;SDS011;8595;52.542;11.974;2022-08-19T06:31:58;30.42;;;27.13;;
16957;SDS011;8595;52.542;11.974;2022-08-19T06:34:26;30.23;;;27.02;;
16957;SDS011;8595;52.542;11.974;2022-08-19T06:36:54;35.85;;;30.63;;
16957;SDS011;8595;52.542;11.974;2022-08-19T06:39:23;35.47;;;29.48;;
16957;SDS011;8595;52.542;11.974;2022-08-19T06:41:54;30.73;;;26.67;;
16957;SDS011;8595;52.542;11.974;2022-08-19T06:44:24;29.25;;;26.13;;
16957;SDS011;8595;52.542;11.974;2022-08-19T06:46:53;30.02;;;26.60;;
16957;SDS011;8595;52.542;11.974;2022-08-19T06:49:20;29.92;;;25.23;;
16957;SDS011;8595;52.542;11.974;2022-08-19T06:51:48;29.80;;;26.63;;
16957;SDS011;8595;52.542;11.974;2022-08-19T06:54:16;35.00;;;29.95;;
16957;SDS011;8595;52.542;11.974;2022-08-19T06:56:43;33.83;;;28.63;;
16957;SDS011;8595;52.542;11.974;2022-08-19T06:59:11;30.63;;;26.20;;
16957;SDS011;8595;52.542;11.974;2022-08-19T07:01:43;31.05;;;27.23;;
16957;SDS011;8595;52.542;11.974;2022-08-19T07:04:12;30.55;;;27.00;;
16957;SDS011;8595;52.542;11.974;2022-08-19T07:06:40;32.55;;;26.80;;
16957;SDS011;8595;52.542;11.974;2022-08-19T07:09:07;28.95;;;25.52;;
16957;SDS011;8595;52.542;11.974;2022-08-19T07:11:35;27.85;;;24.73;;
16957;SDS011;8595;52.542;11.974;2022-08-19T07:14:02;27.17;;;24.20;;
16957;SDS011;8595;52.542;11.974;2022-08-19T07:16:29;27.75;;;24.90;;
16957;SDS011;8595;52.542;11.974;2022-08-19T07:18:57;27.70;;;24.08;;
16957;SDS011;8595;52.542;11.974;2022-08-19T07:21:25;31.02;;;27.73;;
16957;SDS011;8595;52.542;11.974;2022-08-19T07:23:54;26.67;;;23.77;;
16957;SDS011;8595;52.542;11.974;2022-08-19T07:26:25;28.77;;;25.70;;
16957;SDS011;8595;52.542;11.974;2022-08-19T07:28:54;27.63;;;24.63;;
16957;SDS011;8595;52.542;11.974;2022-08-19T07:31:23;32.55;;;27.23;;
16957;SDS011;8595;52.542;11.974;2022-08-19T07:33:52;29.27;;;24.80;;
16957;SDS011;8595;52.542;11.974;2022-08-19T07:36:25;30.92;;;27.45;;
16957;SDS011;8595;52.542;11.974;2022-08-19T07:38:57;29.30;;;25.40;;
16957;SDS011;8595;52.542;11.974;2022-08-19T07:41:26;32.85;;;29.27;;
16957;SDS011;8595;52.542;11.974;2022-08-19T07:43:56;38.28;;;34.22;;
16957;SDS011;8595;52.542;11.974;2022-08-19T07:46:24;30.08;;;25.60;;
16957;SDS011;8595;52.542;11.974;2022-08-19T07:48:53;27.30;;;24.23;;
16957;SDS011;8595;52.542;11.974;2022-08-19T07:51:20;32.28;;;27.90;;
16957;SDS011;8595;52.542;11.974;2022-08-19T07:53:49;29.45;;;25.48;;
16957;SDS011;8595;52.542;11.974;2022-08-19T07:56:16;29.38;;;24.63;;
16957;SDS011;8595;52.542;11.974;2022-08-19T07:58:44;30.15;;;25.42;;
16957;SDS011;8595;52.542;11.974;2022-08-19T08:01:13;27.35;;;24.52;;
16957;SDS011;8595;52.542;11.974;2022-08-19T08:03:42;32.97;;;29.33;;
16957;SDS011;8595;52.542;11.974;2022-08-19T08:06:24;30.70;;;26.70;;
16957;SDS011;8595;52.542;11.974;2022-08-19T08:09:10;36.00;;;30.48;;
16957;SDS011;8595;52.542;11.974;2022-08-19T08:11:37;31.13;;;27.85;;
16957;SDS011;8595;52.542;11.974;2022-08-19T08:14:04;33.17;;;26.98;;
16957;SDS011;8595;52.542;11.974;2022-08-19T08:16:33;28.88;;;25.80;;
16957;SDS011;8595;52.542;11.974;2022-08-19T08:19:00;29.60;;;25.40;;
16957;SDS011;8595;52.542;11.974;2022-08-19T08:21:28;35.63;;;27.85;;
16957;SDS011;8595;52.542;11.974;2022-08-19T08:23:55;30.23;;;26.73;;
16957;SDS011;8595;52.542;11.974;2022-08-19T08:26:21;29.55;;;26.27;;
16957;SDS011;8595;52.542;11.974;2022-08-19T08:28:48;31.90;;;28.45;;
16957;SDS011;8595;52.542;11.974;2022-08-19T08:31:15;29.75;;;26.58;;
16957;SDS011;8595;52.542;11.974;2022-08-19T08:33:43;34.40;;;28.77;;
16957;SDS011;8595;52.542;11.974;2022-08-19T08:36:10;39.10;;;29.95;;
16957;SDS011;8595;52.542;11.974;2022-08-19T08:38:40;28.20;;;22.88;;
16957;SDS011;8595;52.542;11.974;2022-08-19T08:41:12;26.65;;;23.77;;
16957;SDS011;8595;52.542;11.974;2022-08-19T08:43:45;29.42;;;26.20;;
16957;SDS011;8595;52.542;11.974;2022-08-19T08:46:17;30.38;;;26.60;;
16957;SDS011;8595;52.542;11.974;2022-08-19T08:48:49;29.17;;;25.75;;
16957;SDS011;8595;52.542;11.974;2022-08-19T08:51:21;30.05;;;26.90;;
16957;SDS011;8595;52.542;11.974;2022-08-19T08:53:52;31.27;;;26.27;;
16957;SDS011;8595;52.542;11.974;2022-08-19T08:56:21;26.73;;;23.92;;
16957;SDS011;8595;52.542;11.974;2022-08-19T08:58:50;31.95;;;25.88;;
16957;SDS011;8595;52.542;11.974;2022-08-19T09:01:22;30.52;;;27.25;;
16957;SDS011;8595;52.542;11.974;2022-08-19T09:03:49;26.02;;;22.38;;
16957;SDS011;8595;52.542;11.974;2022-08-19T09:06:18;36.80;;;28.85;;
16957;SDS011;8595;52.542;11.974;2022-08-19T09:08:54;27.90;;;24.90;;
16957;SDS011;8595;52.542;11.974;2022-08-19T09:11:36;28.15;;;24.65;;
16957;SDS011;8595;52.542;11.974;2022-08-19T09:14:15;39.10;;;27.05;;
16957;SDS011;8595;52.542;11.974;2022-08-19T09:16:53;31.48;;;26.00;;
16957;SDS011;8595;52.542;11.974;2022-08-19T09:19:20;29.08;;;24.58;;
16957;SDS011;8595;52.542;11.974;2022-08-19T09:21:46;35.50;;;28.20;;
16957;SDS011;8595;52.542;11.974;2022-08-19T09:24:14;28.83;;;25.45;;
16957;SDS011;8595;52.542;11.974;2022-08-19T09:26:41;27.48;;;24.35;;
16957;SDS011;8595;52.542;11.974;2022-08-19T09:29:08;31.35;;;26.25;;
16957;SDS011;8595;52.542;11.974;2022-08-19T09:31:36;33.47;;;27.20;;
16957;SDS011;8595;52.542;11.974;2022-08-19T09:34:02;30.63;;;23.67;;
16957;SDS011;8595;52.542;11.974;2022-08-19T09:36:30;29.67;;;23.95;;
16957;SDS011;8595;52.542;11.974;2022-08-19T09:38:58;30.27;;;26.80;;
16957;SDS011;8595;52.542;11.974;2022-08-19T09:41:27;30.00;;;26.83;;
16957;SDS011;8595;52.542;11.974;2022-08-19T09:43:54;29.85;;;26.67;;
16957;SDS011;8595;52.542;11.974;2022-08-19T09:46:23;29.48;;;26.33;;
16957;SDS011;8595;52.542;11.974;2022-08-19T09:48:51;32.25;;;25.85;;
16957;SDS011;8595;52.542;11.974;2022-08-19T09:51:18;32.53;;;27.92;;
16957;SDS011;8595;52.542;11.974;2022-08-19T09:53:47;33.10;;;29.20;;
16957;SDS011;8595;52.542;11.974;2022-08-19T09:56:16;32.17;;;26.75;;
16957;SDS011;8595;52.542;11.974;2022-08-19T09:58:45;29.13;;;25.98;;
16957;SDS011;8595;52.542;11.974;2022-08-19T10:01:15;38.85;;;30.77;;
16957;SDS011;8595;52.542;11.974;2022-08-19T10:03:44;36.08;;;29.23;;
16957;SDS011;8595;52.542;11.974;2022-08-19T10:06:14;38.55;;;27.52;;
16957;SDS011;8595;52.542;11.974;2022-08-19T10:08:41;43.13;;;32.00;;
16957;SDS011;8595;52.542;11.974;2022-08-19T10:11:08;36.22;;;29.20;;
16957;SDS011;8595;52.542;11.974;2022-08-19T10:13:35;32.72;;;27.63;;
16957;SDS011;8595;52.542;11.974;2022-08-19T10:16:05;34.17;;;28.17;;
16957;SDS011;8595;52.542;11.974;2022-08-19T10:18:34;37.50;;;31.42;;
16957;SDS011;8595;52.542;11.974;2022-08-19T10:21:03;32.17;;;26.98;;
16957;SDS011;8595;52.542;11.974;2022-08-19T10:23:34;38.63;;;29.38;;
16957;SDS011;8595;52.542;11.974;2022-08-19T10:26:01;37.90;;;30.67;;
16957;SDS011;8595;52.542;11.974;2022-08-19T10:28:28;38.22;;;30.63;;
16957;SDS011;8595;52.542;11.974;2022-08-19T10:30:54;37.20;;;30.73;;
16957;SDS011;8595;52.542;11.974;2022-08-19T10:33:22;36.80;;;29.02;;
16957;SDS011;8595;52.542;11.974;2022-08-19T10:35:57;35.55;;;28.38;;
16957;SDS011;8595;52.542;11.974;2022-08-19T10:38:25;41.42;;;32.42;;
16957;SDS011;8595;52.542;11.974;2022-08-19T10:40:53;36.10;;;29.95;;
16957;SDS011;8595;52.542;11.974;2022-08-19T10:43:20;35.38;;;29.13;;
16957;SDS011;8595;52.542;11.974;2022-08-19T10:45:48;31.40;;;26.58;;
16957;SDS011;8595;52.542;11.974;2022-08-19T10:48:18;39.50;;;30.00;;
16957;SDS011;8595;52.542;11.974;2022-08-19T10:50:46;33.00;;;27.77;;
16957;SDS011;8595;52.542;11.974;2022-08-19T10:53:30;36.90;;;30.42;;
16957;SDS011;8595;52.542;11.974;2022-08-19T10:55:57;37.13;;;31.27;;
16957;SDS011;8595;52.542;11.974;2022-08-19T10:58:41;33.30;;;27.17;;
16957;SDS011;8595;52.542;11.974;2022-08-19T11:01:09;36.72;;;28.98;;
16957;SDS011;8595;52.542;11.974;2022-08-19T11:03:36;33.33;;;26.02;;
16957;SDS011;8595;52.542;11.974;2022-08-19T11:06:06;37.13;;;27.10;;
16957;SDS011;8595;52.542;11.974;2022-08-19T11:08:35;36.75;;;29.20;;
16957;SDS011;8595;52.542;11.974;2022-08-19T11:11:03;31.23;;;24.55;;
16957;SDS011;8595;52.542;11.974;2022-08-19T11:13:32;31.35;;;24.45;;
16957;SDS011;8595;52.542;11.974;2022-08-19T11:16:02;25.33;;;22.35;;
16957;SDS011;8595;52.542;11.974;2022-08-19T11:18:30;27.52;;;24.15;;
16957;SDS011;8595;52.542;11.974;2022-08-19T11:21:05;31.05;;;25.98;;
16957;SDS011;8595;52.542;11.974;2022-08-19T11:23:33;28.73;;;25.38;;
16957;SDS011;8595;52.542;11.974;2022-08-19T11:26:00;30.55;;;26.35;;
16957;SDS011;8595;52.542;11.974;2022-08-19T11:28:27;33.42;;;25.50;;
16957;SDS011;8595;52.542;11.974;2022-08-19T11:30:54;35.72;;;28.33;;
16957;SDS011;8595;52.542;11.974;2022-08-19T11:33:21;29.95;;;25.25;;
16957;SDS011;8595;52.542;11.974;2022-08-19T11:35:47;28.20;;;25.17;;
16957;SDS011;8595;52.542;11.974;2022-08-19T11:38:16;29.17;;;23.88;;
16957;SDS011;8595;52.542;11.974;2022-08-19T11:40:43;29.83;;;24.42;;
16957;SDS011;8595;52.542;11.974;2022-08-19T11:43:09;26.17;;;23.27;;
16957;SDS011;8595;52.542;11.974;2022-08-19T11:45:36;25.75;;;22.15;;
16957;SDS011;8595;52.542;11.974;2022-08-19T11:48:03;27.58;;;24.52;;
16957;SDS011;8595;52.542;11.974;2022-08-19T11:50:30;25.67;;;22.13;;
16957;SDS011;8595;52.542;11.974;2022-08-19T11:52:56;32.15;;;25.95;;
16957;SDS011;8595;52.542;11.974;2022-08-19T11:55:24;30.50;;;25.88;;
16957;SDS011;8595;52.542;11.974;2022-08-19T11:57:51;29.70;;;26.05;;
16957;SDS011;8595;52.542;11.974;2022-08-19T12:00:18;27.98;;;23.20;;
16957;SDS011;8595;52.542;11.974;2022-08-19T12:02:45;31.65;;;24.23;;
16957;SDS011;8595;52.542;11.974;2022-08-19T12:05:11;26.85;;;23.25;;
16957;SDS011;8595;52.542;11.974;2022-08-19T12:07:38;29.40;;;23.10;;
16957;SDS011;8595;52.542;11.974;2022-08-19T12:10:06;22.60;;;20.17;;
16957;SDS011;8595;52.542;11.974;2022-08-19T12:12:34;26.65;;;22.92;;
16957;SDS011;8595;52.542;11.974;2022-08-19T12:15:02;28.05;;;21.02;;
16957;SDS011;8595;52.542;11.974;2022-08-19T12:17:30;23.40;;;20.55;;
16957;SDS011;8595;52.542;11.974;2022-08-19T12:19:56;22.42;;;19.70;;
16957;SDS011;8595;52.542;11.974;2022-08-19T12:22:23;24.35;;;21.75;;
16957;SDS011;8595;52.542;11.974;2022-08-19T12:24:49;26.15;;;23.30;;
16957;SDS011;8595;52.542;11.974;2022-08-19T12:27:18;25.00;;;19.42;;
16957;SDS011;8595;52.542;11.974;2022-08-19T12:29:46;21.75;;;19.50;;
16957;SDS011;8595;52.542;11.974;2022-08-19T12:32:14;23.35;;;18.80;;
16957;SDS011;8595;52.542;11.974;2022-08-19T12:34:41;24.95;;;21.77;;
16957;SDS011;8595;52.542;11.974;2022-08-19T12:37:09;23.17;;;20.63;;
16957;SDS011;8595;52.542;11.974;2022-08-19T12:39:37;25.65;;;22.95;;
16957;SDS011;8595;52.542;11.974;2022-08-19T12:42:06;26.67;;;22.25;;
16957;SDS011;8595;52.542;11.974;2022-08-19T12:44:33;25.83;;;23.10;;
16957;SDS011;8595;52.542;11.974;2022-08-19T12:47:01;28.65;;;22.00;;
16957;SDS011;8595;52.542;11.974;2022-08-19T12:49:29;27.48;;;20.77;;
16957;SDS011;8595;52.542;11.974;2022-08-19T12:51:56;25.92;;;20.55;;
16957;SDS011;8595;52.542;11.974;2022-08-19T12:54:23;24.75;;;19.92;;
16957;SDS011;8595;52.542;11.974;2022-08-19T12:56:50;26.70;;;21.95;;
16957;SDS011;8595;52.542;11.974;2022-08-19T12:59:17;29.35;;;25.45;;
16957;SDS011;8595;52.542;11.974;2022-08-19T13:01:44;31.00;;;25.17;;
16957;SDS011;8595;52.542;11.974;2022-08-19T13:04:12;28.23;;;23.58;;
16957;SDS011;8595;52.542;11.974;2022-08-19T13:06:39;25.77;;;21.10;;
16957;SDS011;8595;52.542;11.974;2022-08-19T13:09:05;31.45;;;27.48;;
16957;SDS011;8595;52.542;11.974;2022-08-19T13:11:32;28.85;;;23.92;;
16957;SDS011;8595;52.542;11.974;2022-08-19T13:13:59;25.88;;;21.40;;
16957;SDS011;8595;52.542;11.974;2022-08-19T13:16:27;33.75;;;26.50;;
16957;SDS011;8595;52.542;11.974;2022-08-19T13:18:55;29.77;;;24.20;;
16957;SDS011;8595;52.542;11.974;2022-08-19T13:21:24;31.13;;;24.52;;
16957;SDS011;8595;52.542;11.974;2022-08-19T13:23:54;25.88;;;22.38;;
16957;SDS011;8595;52.542;11.974;2022-08-19T13:26:21;29.67;;;22.02;;
16957;SDS011;8595;52.542;11.974;2022-08-19T13:28:48;29.85;;;23.38;;
16957;SDS011;8595;52.542;11.974;2022-08-19T13:31:33;27.05;;;23.13;;
16957;SDS011;8595;52.542;11.974;2022-08-19T13:34:27;30.58;;;23.17;;
16957;SDS011;8595;52.542;11.974;2022-08-19T13:36:58;27.33;;;23.17;;
16957;SDS011;8595;52.542;11.974;2022-08-19T13:39:27;28.85;;;23.23;;
16957;SDS011;8595;52.542;11.974;2022-08-19T13:41:54;25.48;;;21.23;;
16957;SDS011;8595;52.542;11.974;2022-08-19T13:44:21;27.85;;;21.65;;
16957;SDS011;8595;52.542;11.974;2022-08-19T13:46:48;23.52;;;21.05;;
16957;SDS011;8595;52.542;11.974;2022-08-19T13:49:18;26.10;;;22.85;;
16957;SDS011;8595;52.542;11.974;2022-08-19T13:51:45;29.38;;;24.70;;
16957;SDS011;8595;52.542;11.974;2022-08-19T13:54:13;26.63;;;23.77;;
16957;SDS011;8595;52.542;11.974;2022-08-19T13:56:40;28.80;;;24.52;;
16957;SDS011;8595;52.542;11.974;2022-08-19T13:59:09;32.45;;;23.85;;
16957;SDS011;8595;52.542;11.974;2022-08-19T14:01:36;25.83;;;21.98;;
16957;SDS011;8595;52.542;11.974;2022-08-19T14:04:03;29.17;;;23.77;;
16957;SDS011;8595;52.542;11.974;2022-08-19T14:06:30;33.95;;;24.77;;
16957;SDS011;8595;52.542;11.974;2022-08-19T14:08:57;29.40;;;22.98;;
16957;SDS011;8595;52.542;11.974;2022-08-19T14:11:25;24.00;;;18.23;;
16957;SDS011;8595;52.542;11.974;2022-08-19T14:13:53;25.35;;;19.80;;
16957;SDS011;8595;52.542;11.974;2022-08-19T14:16:19;25.30;;;20.77;;
16957;SDS011;8595;52.542;11.974;2022-08-19T14:18:47;32.42;;;22.60;;
16957;SDS011;8595;52.542;11.974;2022-08-19T14:21:14;23.30;;;20.13;;
16957;SDS011;8595;52.542;11.974;2022-08-19T14:23:43;21.55;;;19.23;;
16957;SDS011;8595;52.542;11.974;2022-08-19T14:26:11;23.88;;;21.00;;
16957;SDS011;8595;52.542;11.974;2022-08-19T14:28:40;22.13;;;19.77;;